sensor_id;sensor_type;location;lat;lon;timestamp;P1;durP1;ratioP1;P2;durP2;ratioP2
7359;SDS011;3720;48.274;7.796;2022-10-16T00:01:29;3.22;;;1.33;;
7359;SDS011;3720;48.274;7.796;2022-10-16T00:04:01;5.32;;;1.20;;
7359;SDS011;3720;48.274;7.796;2022-10-16T00:06:34;4.47;;;1.52;;
7359;SDS011;3720;48.274;7.796;2022-10-16T00:09:06;4.85;;;1.40;;
7359;SDS011;3720;48.274;7.796;2022-10-16T00:11:39;6.10;;;1.30;;
7359;SDS011;3720;48.274;7.796;2022-10-16T00:14:13;3.10;;;1.30;;
7359;SDS011;3720;48.274;7.796;2022-10-16T00:16:46;6.20;;;1.33;;
7359;SDS011;3720;48.274;7.796;2022-10-16T00:19:17;3.63;;;1.30;;
7359;SDS011;3720;48.274;7.796;2022-10-16T00:21:49;3.53;;;1.27;;
7359;SDS011;3720;48.274;7.796;2022-10-16T00:24:21;3.55;;;1.40;;
7359;SDS011;3720;48.274;7.796;2022-10-16T00:26:55;2.28;;;1.20;;
7359;SDS011;3720;48.274;7.796;2022-10-16T00:29:27;4.28;;;1.50;;
7359;SDS011;3720;48.274;7.796;2022-10-16T00:31:59;1.27;;;1.10;;
7359;SDS011;3720;48.274;7.796;2022-10-16T00:34:31;5.00;;;1.13;;
7359;SDS011;3720;48.274;7.796;2022-10-16T00:37:03;4.03;;;1.10;;
7359;SDS011;3720;48.274;7.796;2022-10-16T00:39:35;5.13;;;1.30;;
7359;SDS011;3720;48.274;7.796;2022-10-16T00:42:09;4.40;;;1.02;;
7359;SDS011;3720;48.274;7.796;2022-10-16T00:44:47;2.80;;;1.13;;
7359;SDS011;3720;48.274;7.796;2022-10-16T00:47:23;4.50;;;1.05;;
7359;SDS011;3720;48.274;7.796;2022-10-16T00:50:01;2.22;;;1.33;;
7359;SDS011;3720;48.274;7.796;2022-10-16T00:52:39;2.80;;;1.50;;
7359;SDS011;3720;48.274;7.796;2022-10-16T00:55:14;5.72;;;1.50;;
7359;SDS011;3720;48.274;7.796;2022-10-16T00:57:48;2.63;;;1.40;;
7359;SDS011;3720;48.274;7.796;2022-10-16T01:00:22;4.00;;;1.27;;
7359;SDS011;3720;48.274;7.796;2022-10-16T01:02:58;2.40;;;1.23;;
7359;SDS011;3720;48.274;7.796;2022-10-16T01:05:33;2.15;;;1.20;;
7359;SDS011;3720;48.274;7.796;2022-10-16T01:08:12;2.70;;;1.15;;
7359;SDS011;3720;48.274;7.796;2022-10-16T01:10:48;3.17;;;1.27;;
7359;SDS011;3720;48.274;7.796;2022-10-16T01:13:32;5.65;;;1.50;;
7359;SDS011;3720;48.274;7.796;2022-10-16T01:16:09;1.80;;;1.10;;
7359;SDS011;3720;48.274;7.796;2022-10-16T01:18:44;3.03;;;1.20;;
7359;SDS011;3720;48.274;7.796;2022-10-16T01:21:21;2.72;;;1.10;;
7359;SDS011;3720;48.274;7.796;2022-10-16T01:23:58;4.25;;;1.45;;
7359;SDS011;3720;48.274;7.796;2022-10-16T01:26:41;3.10;;;1.30;;
7359;SDS011;3720;48.274;7.796;2022-10-16T01:29:32;5.15;;;1.38;;
7359;SDS011;3720;48.274;7.796;2022-10-16T01:32:10;2.03;;;1.20;;
7359;SDS011;3720;48.274;7.796;2022-10-16T01:34:49;6.68;;;1.40;;
7359;SDS011;3720;48.274;7.796;2022-10-16T01:37:27;2.33;;;1.40;;
7359;SDS011;3720;48.274;7.796;2022-10-16T01:40:05;7.85;;;1.65;;
7359;SDS011;3720;48.274;7.796;2022-10-16T01:42:41;3.45;;;1.90;;
7359;SDS011;3720;48.274;7.796;2022-10-16T01:47:50;3.65;;;1.40;;
7359;SDS011;3720;48.274;7.796;2022-10-16T01:50:24;2.80;;;1.30;;
7359;SDS011;3720;48.274;7.796;2022-10-16T01:52:58;6.13;;;1.40;;
7359;SDS011;3720;48.274;7.796;2022-10-16T01:55:33;4.15;;;1.30;;
7359;SDS011;3720;48.274;7.796;2022-10-16T01:58:11;4.32;;;1.40;;
7359;SDS011;3720;48.274;7.796;2022-10-16T02:00:45;6.25;;;1.60;;
7359;SDS011;3720;48.274;7.796;2022-10-16T02:03:18;2.97;;;1.45;;
7359;SDS011;3720;48.274;7.796;2022-10-16T02:05:52;2.63;;;1.70;;
7359;SDS011;3720;48.274;7.796;2022-10-16T02:08:27;4.82;;;1.90;;
7359;SDS011;3720;48.274;7.796;2022-10-16T02:11:00;4.25;;;1.98;;
7359;SDS011;3720;48.274;7.796;2022-10-16T02:13:35;2.08;;;1.58;;
7359;SDS011;3720;48.274;7.796;2022-10-16T02:16:11;3.50;;;1.60;;
7359;SDS011;3720;48.274;7.796;2022-10-16T02:18:44;2.03;;;1.60;;
7359;SDS011;3720;48.274;7.796;2022-10-16T02:21:16;5.32;;;1.90;;
7359;SDS011;3720;48.274;7.796;2022-10-16T02:23:54;2.40;;;1.70;;
7359;SDS011;3720;48.274;7.796;2022-10-16T02:26:35;6.38;;;2.15;;
7359;SDS011;3720;48.274;7.796;2022-10-16T02:29:13;4.10;;;1.65;;
7359;SDS011;3720;48.274;7.796;2022-10-16T02:31:50;2.13;;;1.60;;
7359;SDS011;3720;48.274;7.796;2022-10-16T02:34:25;2.42;;;1.50;;
7359;SDS011;3720;48.274;7.796;2022-10-16T02:36:59;4.43;;;1.60;;
7359;SDS011;3720;48.274;7.796;2022-10-16T02:39:33;2.97;;;1.63;;
7359;SDS011;3720;48.274;7.796;2022-10-16T02:42:09;2.45;;;1.50;;
7359;SDS011;3720;48.274;7.796;2022-10-16T02:44:44;5.57;;;1.80;;
7359;SDS011;3720;48.274;7.796;2022-10-16T02:47:16;4.85;;;1.65;;
7359;SDS011;3720;48.274;7.796;2022-10-16T02:49:47;2.30;;;1.63;;
7359;SDS011;3720;48.274;7.796;2022-10-16T02:52:19;3.83;;;1.63;;
7359;SDS011;3720;48.274;7.796;2022-10-16T02:54:51;3.22;;;1.90;;
7359;SDS011;3720;48.274;7.796;2022-10-16T02:57:23;3.38;;;1.70;;
7359;SDS011;3720;48.274;7.796;2022-10-16T02:59:57;5.03;;;1.90;;
7359;SDS011;3720;48.274;7.796;2022-10-16T03:02:29;2.72;;;1.70;;
7359;SDS011;3720;48.274;7.796;2022-10-16T03:05:01;2.55;;;1.80;;
7359;SDS011;3720;48.274;7.796;2022-10-16T03:07:33;4.22;;;1.55;;
7359;SDS011;3720;48.274;7.796;2022-10-16T03:10:05;4.18;;;1.60;;
7359;SDS011;3720;48.274;7.796;2022-10-16T03:12:38;5.57;;;1.98;;
7359;SDS011;3720;48.274;7.796;2022-10-16T03:15:11;4.75;;;1.77;;
7359;SDS011;3720;48.274;7.796;2022-10-16T03:17:43;2.40;;;1.60;;
7359;SDS011;3720;48.274;7.796;2022-10-16T03:20:15;2.85;;;1.73;;
7359;SDS011;3720;48.274;7.796;2022-10-16T03:22:47;4.40;;;1.80;;
7359;SDS011;3720;48.274;7.796;2022-10-16T03:25:19;3.80;;;1.90;;
7359;SDS011;3720;48.274;7.796;2022-10-16T03:27:51;4.65;;;1.67;;
7359;SDS011;3720;48.274;7.796;2022-10-16T03:30:25;3.42;;;1.55;;
7359;SDS011;3720;48.274;7.796;2022-10-16T03:32:57;4.13;;;1.65;;
7359;SDS011;3720;48.274;7.796;2022-10-16T03:35:28;3.50;;;1.60;;
7359;SDS011;3720;48.274;7.796;2022-10-16T03:38:00;4.28;;;1.90;;
7359;SDS011;3720;48.274;7.796;2022-10-16T03:40:32;5.88;;;1.90;;
7359;SDS011;3720;48.274;7.796;2022-10-16T03:43:04;4.07;;;1.70;;
7359;SDS011;3720;48.274;7.796;2022-10-16T03:45:37;2.83;;;1.73;;
7359;SDS011;3720;48.274;7.796;2022-10-16T03:48:09;4.43;;;1.90;;
7359;SDS011;3720;48.274;7.796;2022-10-16T03:50:41;4.28;;;2.25;;
7359;SDS011;3720;48.274;7.796;2022-10-16T03:53:13;4.20;;;2.10;;
7359;SDS011;3720;48.274;7.796;2022-10-16T03:55:45;5.53;;;2.03;;
7359;SDS011;3720;48.274;7.796;2022-10-16T03:58:17;3.35;;;2.10;;
7359;SDS011;3720;48.274;7.796;2022-10-16T04:00:51;5.55;;;1.98;;
7359;SDS011;3720;48.274;7.796;2022-10-16T04:03:23;3.38;;;1.75;;
7359;SDS011;3720;48.274;7.796;2022-10-16T04:05:55;4.57;;;1.40;;
7359;SDS011;3720;48.274;7.796;2022-10-16T04:08:27;2.05;;;1.23;;
7359;SDS011;3720;48.274;7.796;2022-10-16T04:10:59;7.03;;;1.42;;
7359;SDS011;3720;48.274;7.796;2022-10-16T04:13:31;1.80;;;1.00;;
7359;SDS011;3720;48.274;7.796;2022-10-16T04:16:05;5.15;;;1.33;;
7359;SDS011;3720;48.274;7.796;2022-10-16T04:18:37;3.47;;;1.30;;
7359;SDS011;3720;48.274;7.796;2022-10-16T04:21:09;2.92;;;1.50;;
7359;SDS011;3720;48.274;7.796;2022-10-16T04:23:41;1.98;;;1.50;;
7359;SDS011;3720;48.274;7.796;2022-10-16T04:26:14;5.45;;;1.70;;
7359;SDS011;3720;48.274;7.796;2022-10-16T04:28:46;5.18;;;1.50;;
7359;SDS011;3720;48.274;7.796;2022-10-16T04:31:19;1.92;;;1.50;;
7359;SDS011;3720;48.274;7.796;2022-10-16T04:33:52;3.97;;;1.60;;
7359;SDS011;3720;48.274;7.796;2022-10-16T04:36:23;3.05;;;1.50;;
7359;SDS011;3720;48.274;7.796;2022-10-16T04:38:56;2.78;;;1.20;;
7359;SDS011;3720;48.274;7.796;2022-10-16T04:41:27;3.22;;;1.42;;
7359;SDS011;3720;48.274;7.796;2022-10-16T04:44:00;4.32;;;1.50;;
7359;SDS011;3720;48.274;7.796;2022-10-16T04:46:34;5.43;;;1.60;;
7359;SDS011;3720;48.274;7.796;2022-10-16T04:49:06;3.47;;;1.50;;
7359;SDS011;3720;48.274;7.796;2022-10-16T04:51:38;1.92;;;1.40;;
7359;SDS011;3720;48.274;7.796;2022-10-16T04:54:10;3.80;;;1.50;;
7359;SDS011;3720;48.274;7.796;2022-10-16T04:56:42;6.47;;;1.80;;
7359;SDS011;3720;48.274;7.796;2022-10-16T04:59:18;4.20;;;1.70;;
7359;SDS011;3720;48.274;7.796;2022-10-16T05:01:52;3.35;;;1.52;;
7359;SDS011;3720;48.274;7.796;2022-10-16T05:04:24;2.80;;;1.73;;
7359;SDS011;3720;48.274;7.796;2022-10-16T05:06:56;4.80;;;1.77;;
7359;SDS011;3720;48.274;7.796;2022-10-16T05:09:27;4.88;;;1.75;;
7359;SDS011;3720;48.274;7.796;2022-10-16T05:11:59;4.00;;;2.28;;
7359;SDS011;3720;48.274;7.796;2022-10-16T05:14:31;3.13;;;1.80;;
7359;SDS011;3720;48.274;7.796;2022-10-16T05:17:04;5.65;;;2.00;;
7359;SDS011;3720;48.274;7.796;2022-10-16T05:19:36;5.65;;;2.35;;
7359;SDS011;3720;48.274;7.796;2022-10-16T05:22:08;5.95;;;2.40;;
7359;SDS011;3720;48.274;7.796;2022-10-16T05:24:40;6.43;;;2.40;;
7359;SDS011;3720;48.274;7.796;2022-10-16T05:27:12;6.25;;;2.10;;
7359;SDS011;3720;48.274;7.796;2022-10-16T05:29:48;4.53;;;2.15;;
7359;SDS011;3720;48.274;7.796;2022-10-16T05:32:22;3.85;;;2.05;;
7359;SDS011;3720;48.274;7.796;2022-10-16T05:34:54;7.30;;;2.47;;
7359;SDS011;3720;48.274;7.796;2022-10-16T05:37:27;2.15;;;1.80;;
7359;SDS011;3720;48.274;7.796;2022-10-16T05:39:59;5.57;;;2.22;;
7359;SDS011;3720;48.274;7.796;2022-10-16T05:42:30;4.15;;;2.20;;
7359;SDS011;3720;48.274;7.796;2022-10-16T05:45:03;5.22;;;2.00;;
7359;SDS011;3720;48.274;7.796;2022-10-16T05:47:37;4.57;;;2.13;;
7359;SDS011;3720;48.274;7.796;2022-10-16T05:50:09;6.00;;;2.10;;
7359;SDS011;3720;48.274;7.796;2022-10-16T05:52:41;4.93;;;1.88;;
7359;SDS011;3720;48.274;7.796;2022-10-16T05:55:12;5.47;;;1.70;;
7359;SDS011;3720;48.274;7.796;2022-10-16T05:57:45;4.72;;;1.88;;
7359;SDS011;3720;48.274;7.796;2022-10-16T06:00:17;7.35;;;2.25;;
7359;SDS011;3720;48.274;7.796;2022-10-16T06:02:50;5.05;;;1.90;;
7359;SDS011;3720;48.274;7.796;2022-10-16T06:05:22;5.45;;;2.00;;
7359;SDS011;3720;48.274;7.796;2022-10-16T06:07:54;2.75;;;1.85;;
7359;SDS011;3720;48.274;7.796;2022-10-16T06:10:26;1.90;;;1.70;;
7359;SDS011;3720;48.274;7.796;2022-10-16T06:12:59;3.35;;;1.80;;
7359;SDS011;3720;48.274;7.796;2022-10-16T06:15:30;6.85;;;2.05;;
7359;SDS011;3720;48.274;7.796;2022-10-16T06:18:04;2.63;;;1.88;;
7359;SDS011;3720;48.274;7.796;2022-10-16T06:20:36;5.82;;;1.83;;
7359;SDS011;3720;48.274;7.796;2022-10-16T06:23:08;4.20;;;1.90;;
7359;SDS011;3720;48.274;7.796;2022-10-16T06:25:40;4.57;;;2.00;;
7359;SDS011;3720;48.274;7.796;2022-10-16T06:28:12;5.25;;;2.28;;
7359;SDS011;3720;48.274;7.796;2022-10-16T06:30:45;6.72;;;2.25;;
7359;SDS011;3720;48.274;7.796;2022-10-16T06:33:18;7.80;;;2.67;;
7359;SDS011;3720;48.274;7.796;2022-10-16T06:35:50;6.28;;;2.70;;
7359;SDS011;3720;48.274;7.796;2022-10-16T06:38:22;3.08;;;2.30;;
7359;SDS011;3720;48.274;7.796;2022-10-16T06:40:54;5.40;;;2.50;;
7359;SDS011;3720;48.274;7.796;2022-10-16T06:43:26;4.43;;;2.60;;
7359;SDS011;3720;48.274;7.796;2022-10-16T06:46:00;2.72;;;2.20;;
7359;SDS011;3720;48.274;7.796;2022-10-16T06:48:34;6.15;;;2.17;;
7359;SDS011;3720;48.274;7.796;2022-10-16T06:51:08;3.85;;;2.40;;
7359;SDS011;3720;48.274;7.796;2022-10-16T06:53:41;4.68;;;2.35;;
7359;SDS011;3720;48.274;7.796;2022-10-16T06:56:15;2.63;;;2.17;;
7359;SDS011;3720;48.274;7.796;2022-10-16T06:58:49;5.38;;;2.60;;
7359;SDS011;3720;48.274;7.796;2022-10-16T07:01:22;4.82;;;2.60;;
7359;SDS011;3720;48.274;7.796;2022-10-16T07:03:57;4.53;;;2.53;;
7359;SDS011;3720;48.274;7.796;2022-10-16T07:06:30;6.45;;;2.92;;
7359;SDS011;3720;48.274;7.796;2022-10-16T07:09:05;4.70;;;2.50;;
7359;SDS011;3720;48.274;7.796;2022-10-16T07:11:39;4.88;;;2.50;;
7359;SDS011;3720;48.274;7.796;2022-10-16T07:14:12;4.88;;;2.47;;
7359;SDS011;3720;48.274;7.796;2022-10-16T07:16:47;4.25;;;2.25;;
7359;SDS011;3720;48.274;7.796;2022-10-16T07:19:31;5.05;;;2.40;;
7359;SDS011;3720;48.274;7.796;2022-10-16T07:22:03;6.18;;;2.60;;
7359;SDS011;3720;48.274;7.796;2022-10-16T07:24:35;3.45;;;2.17;;
7359;SDS011;3720;48.274;7.796;2022-10-16T07:27:07;6.38;;;2.33;;
7359;SDS011;3720;48.274;7.796;2022-10-16T07:29:38;5.38;;;2.60;;
7359;SDS011;3720;48.274;7.796;2022-10-16T07:32:11;6.68;;;2.22;;
7359;SDS011;3720;48.274;7.796;2022-10-16T07:34:44;3.83;;;2.30;;
7359;SDS011;3720;48.274;7.796;2022-10-16T07:37:16;2.95;;;2.55;;
7359;SDS011;3720;48.274;7.796;2022-10-16T07:39:48;4.45;;;2.45;;
7359;SDS011;3720;48.274;7.796;2022-10-16T07:42:20;5.15;;;2.55;;
7359;SDS011;3720;48.274;7.796;2022-10-16T07:44:52;4.47;;;2.72;;
7359;SDS011;3720;48.274;7.796;2022-10-16T07:47:24;7.22;;;2.40;;
7359;SDS011;3720;48.274;7.796;2022-10-16T07:49:58;3.10;;;2.30;;
7359;SDS011;3720;48.274;7.796;2022-10-16T07:52:29;4.68;;;2.33;;
7359;SDS011;3720;48.274;7.796;2022-10-16T07:55:01;5.85;;;2.70;;
7359;SDS011;3720;48.274;7.796;2022-10-16T07:57:34;5.47;;;2.83;;
7359;SDS011;3720;48.274;7.796;2022-10-16T08:00:06;7.03;;;3.47;;
7359;SDS011;3720;48.274;7.796;2022-10-16T08:02:43;5.05;;;2.50;;
7359;SDS011;3720;48.274;7.796;2022-10-16T08:05:16;4.60;;;2.40;;
7359;SDS011;3720;48.274;7.796;2022-10-16T08:07:48;2.97;;;2.10;;
7359;SDS011;3720;48.274;7.796;2022-10-16T08:10:21;4.97;;;2.20;;
7359;SDS011;3720;48.274;7.796;2022-10-16T08:12:54;6.10;;;2.75;;
7359;SDS011;3720;48.274;7.796;2022-10-16T08:15:26;5.88;;;2.58;;
7359;SDS011;3720;48.274;7.796;2022-10-16T08:17:59;6.22;;;2.40;;
7359;SDS011;3720;48.274;7.796;2022-10-16T08:20:34;5.70;;;2.45;;
7359;SDS011;3720;48.274;7.796;2022-10-16T08:23:06;5.50;;;2.60;;
7359;SDS011;3720;48.274;7.796;2022-10-16T08:25:38;6.00;;;2.40;;
7359;SDS011;3720;48.274;7.796;2022-10-16T08:28:11;4.78;;;2.28;;
7359;SDS011;3720;48.274;7.796;2022-10-16T08:30:43;5.45;;;2.20;;
7359;SDS011;3720;48.274;7.796;2022-10-16T08:33:14;4.40;;;2.30;;
7359;SDS011;3720;48.274;7.796;2022-10-16T08:35:51;4.72;;;2.30;;
7359;SDS011;3720;48.274;7.796;2022-10-16T08:38:24;3.60;;;1.75;;
7359;SDS011;3720;48.274;7.796;2022-10-16T08:40:57;5.82;;;1.73;;
7359;SDS011;3720;48.274;7.796;2022-10-16T08:43:44;12.70;;;1.98;;
7359;SDS011;3720;48.274;7.796;2022-10-16T08:46:35;4.10;;;2.10;;
7359;SDS011;3720;48.274;7.796;2022-10-16T08:49:14;6.07;;;2.28;;
7359;SDS011;3720;48.274;7.796;2022-10-16T08:51:47;6.47;;;2.00;;
7359;SDS011;3720;48.274;7.796;2022-10-16T08:54:22;5.55;;;2.00;;
7359;SDS011;3720;48.274;7.796;2022-10-16T08:57:04;2.72;;;1.77;;
7359;SDS011;3720;48.274;7.796;2022-10-16T08:59:41;5.78;;;1.85;;
7359;SDS011;3720;48.274;7.796;2022-10-16T09:02:19;7.32;;;2.00;;
7359;SDS011;3720;48.274;7.796;2022-10-16T09:05:01;5.20;;;1.38;;
7359;SDS011;3720;48.274;7.796;2022-10-16T09:07:45;1.75;;;1.30;;
7359;SDS011;3720;48.274;7.796;2022-10-16T09:10:26;3.22;;;1.20;;
7359;SDS011;3720;48.274;7.796;2022-10-16T09:13:13;4.85;;;1.17;;
7359;SDS011;3720;48.274;7.796;2022-10-16T09:15:54;1.95;;;1.10;;
7359;SDS011;3720;48.274;7.796;2022-10-16T09:18:34;5.03;;;1.30;;
7359;SDS011;3720;48.274;7.796;2022-10-16T09:21:13;3.92;;;1.33;;
7359;SDS011;3720;48.274;7.796;2022-10-16T09:23:51;6.45;;;1.70;;
7359;SDS011;3720;48.274;7.796;2022-10-16T09:26:23;4.15;;;1.20;;
7359;SDS011;3720;48.274;7.796;2022-10-16T09:28:55;2.47;;;1.30;;
7359;SDS011;3720;48.274;7.796;2022-10-16T09:31:27;3.25;;;1.50;;
7359;SDS011;3720;48.274;7.796;2022-10-16T09:33:59;4.63;;;1.40;;
7359;SDS011;3720;48.274;7.796;2022-10-16T09:36:37;2.70;;;1.58;;
7359;SDS011;3720;48.274;7.796;2022-10-16T09:39:14;5.75;;;1.25;;
7359;SDS011;3720;48.274;7.796;2022-10-16T09:41:46;4.05;;;1.35;;
7359;SDS011;3720;48.274;7.796;2022-10-16T09:44:21;8.85;;;1.75;;
7359;SDS011;3720;48.274;7.796;2022-10-16T09:47:02;6.93;;;1.23;;
7359;SDS011;3720;48.274;7.796;2022-10-16T09:49:35;2.65;;;1.40;;
7359;SDS011;3720;48.274;7.796;2022-10-16T09:52:11;3.72;;;1.35;;
7359;SDS011;3720;48.274;7.796;2022-10-16T09:54:53;2.53;;;1.27;;
7359;SDS011;3720;48.274;7.796;2022-10-16T09:57:26;5.57;;;1.23;;
7359;SDS011;3720;48.274;7.796;2022-10-16T10:00:00;4.93;;;1.45;;
7359;SDS011;3720;48.274;7.796;2022-10-16T10:02:40;5.05;;;1.38;;
7359;SDS011;3720;48.274;7.796;2022-10-16T10:05:18;2.47;;;1.33;;
7359;SDS011;3720;48.274;7.796;2022-10-16T10:07:54;4.90;;;1.40;;
7359;SDS011;3720;48.274;7.796;2022-10-16T10:10:29;4.30;;;1.40;;
7359;SDS011;3720;48.274;7.796;2022-10-16T10:13:03;2.20;;;1.20;;
7359;SDS011;3720;48.274;7.796;2022-10-16T10:15:35;5.57;;;1.50;;
7359;SDS011;3720;48.274;7.796;2022-10-16T10:18:16;2.05;;;1.25;;
7359;SDS011;3720;48.274;7.796;2022-10-16T10:20:57;4.00;;;1.30;;
7359;SDS011;3720;48.274;7.796;2022-10-16T10:23:30;3.15;;;1.40;;
7359;SDS011;3720;48.274;7.796;2022-10-16T10:26:04;3.28;;;1.40;;
7359;SDS011;3720;48.274;7.796;2022-10-16T10:28:46;2.45;;;1.10;;
7359;SDS011;3720;48.274;7.796;2022-10-16T10:31:26;1.65;;;1.15;;
7359;SDS011;3720;48.274;7.796;2022-10-16T10:34:09;5.57;;;1.33;;
7359;SDS011;3720;48.274;7.796;2022-10-16T10:36:53;5.03;;;1.30;;
7359;SDS011;3720;48.274;7.796;2022-10-16T10:39:32;2.40;;;1.40;;
7359;SDS011;3720;48.274;7.796;2022-10-16T10:42:14;2.95;;;1.40;;
7359;SDS011;3720;48.274;7.796;2022-10-16T10:44:55;1.50;;;1.20;;
7359;SDS011;3720;48.274;7.796;2022-10-16T10:47:40;2.30;;;1.33;;
7359;SDS011;3720;48.274;7.796;2022-10-16T10:50:20;1.58;;;1.10;;
7359;SDS011;3720;48.274;7.796;2022-10-16T10:52:58;2.65;;;1.48;;
7359;SDS011;3720;48.274;7.796;2022-10-16T10:55:36;1.52;;;1.10;;
7359;SDS011;3720;48.274;7.796;2022-10-16T11:01:15;3.63;;;1.20;;
7359;SDS011;3720;48.274;7.796;2022-10-16T11:03:59;6.90;;;1.50;;
7359;SDS011;3720;48.274;7.796;2022-10-16T11:06:46;3.40;;;1.40;;
7359;SDS011;3720;48.274;7.796;2022-10-16T11:09:23;2.50;;;1.42;;
7359;SDS011;3720;48.274;7.796;2022-10-16T11:11:59;4.32;;;1.60;;
7359;SDS011;3720;48.274;7.796;2022-10-16T11:14:39;2.55;;;1.48;;
7359;SDS011;3720;48.274;7.796;2022-10-16T11:17:15;6.78;;;1.40;;
7359;SDS011;3720;48.274;7.796;2022-10-16T11:19:52;2.70;;;1.40;;
7359;SDS011;3720;48.274;7.796;2022-10-16T11:22:28;5.93;;;1.42;;
7359;SDS011;3720;48.274;7.796;2022-10-16T11:25:13;7.07;;;1.65;;
7359;SDS011;3720;48.274;7.796;2022-10-16T11:27:49;6.70;;;1.50;;
7359;SDS011;3720;48.274;7.796;2022-10-16T11:30:25;4.00;;;1.70;;
7359;SDS011;3720;48.274;7.796;2022-10-16T11:33:04;2.17;;;1.40;;
7359;SDS011;3720;48.274;7.796;2022-10-16T11:35:47;4.80;;;1.40;;
7359;SDS011;3720;48.274;7.796;2022-10-16T11:38:26;4.60;;;1.50;;
7359;SDS011;3720;48.274;7.796;2022-10-16T11:41:01;3.85;;;1.73;;
7359;SDS011;3720;48.274;7.796;2022-10-16T11:43:49;3.33;;;1.67;;
7359;SDS011;3720;48.274;7.796;2022-10-16T11:46:30;4.82;;;1.60;;
7359;SDS011;3720;48.274;7.796;2022-10-16T11:49:08;5.43;;;1.67;;
7359;SDS011;3720;48.274;7.796;2022-10-16T11:51:45;11.23;;;1.70;;
7359;SDS011;3720;48.274;7.796;2022-10-16T11:54:26;6.43;;;1.40;;
7359;SDS011;3720;48.274;7.796;2022-10-16T11:57:16;4.65;;;1.38;;
7359;SDS011;3720;48.274;7.796;2022-10-16T11:59:52;3.00;;;1.20;;
7359;SDS011;3720;48.274;7.796;2022-10-16T12:02:33;3.70;;;1.40;;
7359;SDS011;3720;48.274;7.796;2022-10-16T12:05:19;2.15;;;1.10;;
7359;SDS011;3720;48.274;7.796;2022-10-16T12:07:59;3.45;;;1.20;;
7359;SDS011;3720;48.274;7.796;2022-10-16T12:10:37;2.88;;;1.00;;
7359;SDS011;3720;48.274;7.796;2022-10-16T12:16:20;3.42;;;1.20;;
7359;SDS011;3720;48.274;7.796;2022-10-16T12:19:08;3.40;;;1.20;;
7359;SDS011;3720;48.274;7.796;2022-10-16T12:21:43;2.88;;;1.20;;
7359;SDS011;3720;48.274;7.796;2022-10-16T12:24:27;1.08;;;0.95;;
7359;SDS011;3720;48.274;7.796;2022-10-16T12:27:04;2.15;;;1.20;;
7359;SDS011;3720;48.274;7.796;2022-10-16T12:29:37;1.40;;;1.10;;
7359;SDS011;3720;48.274;7.796;2022-10-16T12:32:21;3.97;;;1.20;;
7359;SDS011;3720;48.274;7.796;2022-10-16T12:35:00;3.00;;;1.10;;
7359;SDS011;3720;48.274;7.796;2022-10-16T12:37:33;2.67;;;1.27;;
7359;SDS011;3720;48.274;7.796;2022-10-16T12:40:11;3.58;;;1.20;;
7359;SDS011;3720;48.274;7.796;2022-10-16T12:42:45;5.03;;;1.30;;
7359;SDS011;3720;48.274;7.796;2022-10-16T12:45:24;4.30;;;1.35;;
7359;SDS011;3720;48.274;7.796;2022-10-16T12:48:00;2.67;;;1.20;;
7359;SDS011;3720;48.274;7.796;2022-10-16T12:50:35;3.33;;;1.20;;
7359;SDS011;3720;48.274;7.796;2022-10-16T12:53:17;3.17;;;1.10;;
7359;SDS011;3720;48.274;7.796;2022-10-16T12:55:52;1.52;;;1.20;;
7359;SDS011;3720;48.274;7.796;2022-10-16T12:58:46;3.70;;;1.00;;
7359;SDS011;3720;48.274;7.796;2022-10-16T13:01:41;2.80;;;1.40;;
7359;SDS011;3720;48.274;7.796;2022-10-16T13:07:28;2.90;;;1.15;;
7359;SDS011;3720;48.274;7.796;2022-10-16T13:10:14;2.42;;;1.05;;
7359;SDS011;3720;48.274;7.796;2022-10-16T13:13:01;2.63;;;1.00;;
7359;SDS011;3720;48.274;7.796;2022-10-16T13:15:51;2.10;;;1.17;;
7359;SDS011;3720;48.274;7.796;2022-10-16T13:18:34;2.45;;;1.10;;
7359;SDS011;3720;48.274;7.796;2022-10-16T13:21:17;3.00;;;0.90;;
7359;SDS011;3720;48.274;7.796;2022-10-16T13:24:00;2.75;;;1.02;;
7359;SDS011;3720;48.274;7.796;2022-10-16T13:26:43;6.25;;;1.20;;
7359;SDS011;3720;48.274;7.796;2022-10-16T13:29:20;2.33;;;0.90;;
7359;SDS011;3720;48.274;7.796;2022-10-16T13:31:53;1.98;;;1.25;;
7359;SDS011;3720;48.274;7.796;2022-10-16T13:34:25;2.75;;;1.15;;
7359;SDS011;3720;48.274;7.796;2022-10-16T13:36:58;3.45;;;1.15;;
7359;SDS011;3720;48.274;7.796;2022-10-16T13:39:31;2.33;;;1.13;;
7359;SDS011;3720;48.274;7.796;2022-10-16T13:42:04;2.70;;;1.25;;
7359;SDS011;3720;48.274;7.796;2022-10-16T13:44:39;1.88;;;1.40;;
7359;SDS011;3720;48.274;7.796;2022-10-16T13:47:15;1.67;;;1.20;;
7359;SDS011;3720;48.274;7.796;2022-10-16T13:49:58;4.78;;;1.30;;
7359;SDS011;3720;48.274;7.796;2022-10-16T13:52:31;1.42;;;1.17;;
7359;SDS011;3720;48.274;7.796;2022-10-16T13:55:09;3.25;;;1.20;;
7359;SDS011;3720;48.274;7.796;2022-10-16T13:57:43;4.13;;;1.30;;
7359;SDS011;3720;48.274;7.796;2022-10-16T14:00:20;2.47;;;1.30;;
7359;SDS011;3720;48.274;7.796;2022-10-16T14:02:55;2.40;;;1.17;;
7359;SDS011;3720;48.274;7.796;2022-10-16T14:05:31;1.90;;;1.35;;
7359;SDS011;3720;48.274;7.796;2022-10-16T14:08:04;2.75;;;1.20;;
7359;SDS011;3720;48.274;7.796;2022-10-16T14:10:38;3.28;;;1.30;;
7359;SDS011;3720;48.274;7.796;2022-10-16T14:13:12;2.05;;;1.08;;
7359;SDS011;3720;48.274;7.796;2022-10-16T14:15:49;2.20;;;1.40;;
7359;SDS011;3720;48.274;7.796;2022-10-16T14:18:25;3.25;;;1.30;;
7359;SDS011;3720;48.274;7.796;2022-10-16T14:21:02;5.57;;;1.30;;
7359;SDS011;3720;48.274;7.796;2022-10-16T14:23:36;2.88;;;1.20;;
7359;SDS011;3720;48.274;7.796;2022-10-16T14:26:15;6.47;;;1.40;;
7359;SDS011;3720;48.274;7.796;2022-10-16T14:28:48;3.22;;;1.20;;
7359;SDS011;3720;48.274;7.796;2022-10-16T14:31:34;4.30;;;1.50;;
7359;SDS011;3720;48.274;7.796;2022-10-16T14:36:57;5.43;;;1.45;;
7359;SDS011;3720;48.274;7.796;2022-10-16T14:39:30;3.95;;;1.23;;
7359;SDS011;3720;48.274;7.796;2022-10-16T14:42:04;3.85;;;1.38;;
7359;SDS011;3720;48.274;7.796;2022-10-16T14:44:36;2.53;;;1.20;;
7359;SDS011;3720;48.274;7.796;2022-10-16T14:47:12;4.60;;;1.23;;
7359;SDS011;3720;48.274;7.796;2022-10-16T14:49:45;1.77;;;1.20;;
7359;SDS011;3720;48.274;7.796;2022-10-16T14:52:17;2.00;;;1.20;;
7359;SDS011;3720;48.274;7.796;2022-10-16T14:54:49;4.65;;;1.50;;
7359;SDS011;3720;48.274;7.796;2022-10-16T14:57:26;1.88;;;1.10;;
7359;SDS011;3720;48.274;7.796;2022-10-16T15:00:02;3.15;;;1.30;;
7359;SDS011;3720;48.274;7.796;2022-10-16T15:02:39;3.05;;;1.30;;
7359;SDS011;3720;48.274;7.796;2022-10-16T15:05:12;2.22;;;1.30;;
7359;SDS011;3720;48.274;7.796;2022-10-16T15:07:47;1.50;;;1.20;;
7359;SDS011;3720;48.274;7.796;2022-10-16T15:10:20;3.65;;;1.30;;
7359;SDS011;3720;48.274;7.796;2022-10-16T15:12:55;2.53;;;1.30;;
7359;SDS011;3720;48.274;7.796;2022-10-16T15:15:30;3.30;;;1.42;;
7359;SDS011;3720;48.274;7.796;2022-10-16T15:18:05;4.15;;;1.20;;
7359;SDS011;3720;48.274;7.796;2022-10-16T15:20:38;2.15;;;1.30;;
7359;SDS011;3720;48.274;7.796;2022-10-16T15:23:12;4.15;;;1.35;;
7359;SDS011;3720;48.274;7.796;2022-10-16T15:25:46;2.22;;;1.40;;
7359;SDS011;3720;48.274;7.796;2022-10-16T15:28:21;2.92;;;1.25;;
7359;SDS011;3720;48.274;7.796;2022-10-16T15:30:56;3.13;;;1.30;;
7359;SDS011;3720;48.274;7.796;2022-10-16T15:33:28;2.33;;;1.23;;
7359;SDS011;3720;48.274;7.796;2022-10-16T15:36:04;1.95;;;1.20;;
7359;SDS011;3720;48.274;7.796;2022-10-16T15:38:36;3.22;;;1.50;;
7359;SDS011;3720;48.274;7.796;2022-10-16T15:41:08;1.92;;;1.27;;
7359;SDS011;3720;48.274;7.796;2022-10-16T15:43:41;2.90;;;1.27;;
7359;SDS011;3720;48.274;7.796;2022-10-16T15:46:13;2.67;;;1.23;;
7359;SDS011;3720;48.274;7.796;2022-10-16T15:48:46;4.55;;;1.40;;
7359;SDS011;3720;48.274;7.796;2022-10-16T15:51:19;2.65;;;1.40;;
7359;SDS011;3720;48.274;7.796;2022-10-16T15:53:51;3.25;;;1.60;;
7359;SDS011;3720;48.274;7.796;2022-10-16T15:56:23;3.05;;;1.35;;
7359;SDS011;3720;48.274;7.796;2022-10-16T15:58:57;4.15;;;1.60;;
7359;SDS011;3720;48.274;7.796;2022-10-16T16:01:31;3.83;;;1.70;;
7359;SDS011;3720;48.274;7.796;2022-10-16T16:04:04;3.92;;;1.90;;
7359;SDS011;3720;48.274;7.796;2022-10-16T16:06:36;3.95;;;2.03;;
7359;SDS011;3720;48.274;7.796;2022-10-16T16:09:10;5.78;;;1.80;;
7359;SDS011;3720;48.274;7.796;2022-10-16T16:11:42;4.90;;;1.80;;
7359;SDS011;3720;48.274;7.796;2022-10-16T16:14:15;3.50;;;1.73;;
7359;SDS011;3720;48.274;7.796;2022-10-16T16:16:47;6.93;;;1.80;;
7359;SDS011;3720;48.274;7.796;2022-10-16T16:19:19;4.57;;;1.88;;